Flight Track Log - Related Links

Times and Time Zones

All times are in EDT time to prevent confusion due to time zone crossing. See the N118RM flight status page for this flight to view local times or setup timezone preferences in your user account.

Time Position Orientation Groundspeed Altitude Reporting Facility
EDT Latitude Longitude Course Direction KTS MPH feet Rate Location/Type
Mon 04:51:21 PM 41.2925 -95.8839 14° North 104 120 1,400  Level Minneapolis Center
Mon 04:52:03 PM 41.2781 -95.8550 124° Southeast 116 133 2,100 857 Climbing Minneapolis Center
Mon 04:52:52 PM 41.2844 -95.8264 73° East 135 155 2,700 826 Climbing Minneapolis Center
Mon 04:53:52 PM 41.3231 -95.8108 17° North 143 165 3,600 893 Climbing Minneapolis Center
Mon 04:54:53 PM 41.3622 -95.8006 11° North 144 166 4,500 891 Climbing Minneapolis Center
Mon 04:56:00 PM 41.4053 -95.7872 13° North 144 166 5,500 829 Climbing Minneapolis Center
Mon 04:57:00 PM 41.5963 -95.7846 14° North  Level FlightAware Approximate
Mon 04:57:25 PM 41.4539 -95.7667 18° North 147 169 6,600  Level Minneapolis Center
Mon 04:58:28 PM 41.5056 -95.7497 14° North 154 177 7,600 912 Climbing Minneapolis Center
Mon 04:59:30 PM 41.5497 -95.7358 13° North 159 183 8,500 677 Climbing Minneapolis Center
Mon 05:00:32 PM 41.5947 -95.7217 13° North 163 188 9,000 242 Climbing Minneapolis Center
Mon 05:01:34 PM 41.6472 -95.7050 13° North 176 203 9,000  Level Minneapolis Center
Mon 05:02:36 PM 41.7133 -95.6842 13° North 193 222 9,000  Level Minneapolis Center
Mon 05:03:38 PM 41.7686 -95.6675 13° North 199 229 9,000  Level Minneapolis Center
Mon 05:04:40 PM 41.8244 -95.6489 14° North 203 234 9,000  Level Minneapolis Center
Mon 05:05:42 PM 41.8797 -95.6311 13° North 204 235 9,000 -48 Level Minneapolis Center
Mon 05:06:44 PM 41.9364 -95.6136 13° North 206 237 8,900  Descending Minneapolis Center
Mon 05:07:46 PM 41.9922 -95.5953 14° North 206 237 9,000 48 Climbing Minneapolis Center
Mon 05:08:48 PM 42.0581 -95.5739 14° North 205 236 9,000  Level Minneapolis Center
Mon 05:09:50 PM 42.1133 -95.5567 13° North 204 235 9,000  Level Minneapolis Center
Mon 05:10:52 PM 42.1692 -95.5386 13° North 206 237 9,000  Level Minneapolis Center
Mon 05:11:55 PM 42.2247 -95.5206 14° North 205 236 9,000  Level Minneapolis Center
Mon 05:12:57 PM 42.2800 -95.5022 14° North 206 237 9,000  Level Minneapolis Center
Mon 05:13:59 PM 42.3361 -95.4867 12° North 206 237 9,000  Level Minneapolis Center
Mon 05:15:01 PM 42.4011 -95.4633 15° North 203 234 9,000  Level Minneapolis Center
Mon 05:16:03 PM 42.4550 -95.4472 12° North 199 229 9,000  Level Minneapolis Center
Mon 05:17:05 PM 42.5097 -95.4278 15° North 202 232 9,000  Level Minneapolis Center
Mon 05:18:07 PM 42.5633 -95.4111 13° North 200 230 9,000 -194 Level Minneapolis Center
Mon 05:19:09 PM 42.6181 -95.3936 13° North 200 230 8,600 -532 Descending Minneapolis Center
Mon 05:20:11 PM 42.6767 -95.3733 14° North 211 243 7,900 -677 Descending Minneapolis Center
Mon 05:21:13 PM 42.7406 -95.3533 13° North 214 246 7,200 -677 Descending Minneapolis Center
Mon 05:22:15 PM 42.7978 -95.3386 11° North 210 242 6,500 -581 Descending Minneapolis Center
Mon 05:23:17 PM 42.8431 -95.3208 16° North 212 244 6,000 -581 Descending Minneapolis Center
Mon 05:24:19 PM 42.9150 -95.2972 14° North 211 243 5,300 -677 Descending Minneapolis Center
Mon 05:26:00 PM 42.9982 -95.2688 14° North  Level FlightAware Approximate
Mon 05:33:00 PM 43.3167 -95.1500 North  Level FlightAware Approximate
Mon 05:34:00 PM 43.3332 -95.1590 North  Level Estimated
Mon 05:35:00 PM 43.3332 -95.1590 North  Level Estimated
Mon 05:36:00 PM 43.3332 -95.1590 North  Level Estimated
Mon 05:37:00 PM 43.3332 -95.1590 North  Level Estimated

Login

Don't have an account? Register now (free) for customized features, flight alerts, and more!